Purdys Mills, New York
Current Conditions -  °F | °C
As of 10:11 AM on Monday 22 Dec 2014 (Local Time) from KPBG Reporting Station
Haze Haze  
Wind Chill: 11°   Ceiling: 400
Heat Index: 20°   Visibility: 1.2mi
Dew Point: 19°   Wind: 7mph
Humidity: 96%   Direction: 340°NNW
Pressure: 30.4"   Gusts: NA
Location:  44.8543°N, 73.663°W
Report Text: KPBG 221511Z AUTO 34006KT 1 1/4SM BR OVC004 M07/M07 A3040 RMK AO2 T10671072
Loading
Personal Weather Stations






























Interactive Weather Map New forecast layout! Learn more

10-Day Weather Forecast

Advertisements
Track Severe Weather on mobile